Lake Grace, Australia
Current Conditions -  °F | °C
As of 8:00 AM on Saturday 01 Nov 2014 (Local Time) from YABA Reporting Station
Clear Clear  
Wind Chill: 59°   Ceiling: Unl
Heat Index: 59°   Visibility: 6mi
Dew Point: 45°   Wind: 14mph
Humidity: 59%   Direction: 40°NE
Pressure: 30.12"   Gusts: NA
Location:  33.1°S, 118.47°E
Report Text: YABA 010000Z 04012KT CAVOK 15/07 Q1020
Loading
Personal Weather Stations






























Interactive Weather Map
Tropical Storm Tracking
New forecast layout! Learn more

10-Day Weather Forecast

Advertisements
Track Severe Weather on mobile